sensor_id;sensor_type;location;lat;lon;timestamp;P1;durP1;ratioP1;P2;durP2;ratioP2
62151;SDS011;48139;47.474;19.034;2023-02-22T04:57:07;9.38;;;5.82;;
62151;SDS011;48139;47.474;19.034;2023-02-22T05:00:14;10.73;;;5.32;;
62151;SDS011;48139;47.474;19.034;2023-02-22T05:03:20;9.52;;;5.37;;
62151;SDS011;48139;47.474;19.034;2023-02-22T05:06:23;8.80;;;5.65;;
62151;SDS011;48139;47.474;19.034;2023-02-22T05:09:25;9.07;;;4.78;;
62151;SDS011;48139;47.474;19.034;2023-02-22T05:12:29;9.77;;;5.55;;
62151;SDS011;48139;47.474;19.034;2023-02-22T05:15:31;12.13;;;5.55;;
62151;SDS011;48139;47.474;19.034;2023-02-22T05:18:34;8.50;;;4.32;;
62151;SDS011;48139;47.474;19.034;2023-02-22T05:21:37;8.60;;;4.43;;
62151;SDS011;48139;47.474;19.034;2023-02-22T05:24:39;8.80;;;5.50;;
62151;SDS011;48139;47.474;19.034;2023-02-22T05:27:42;10.93;;;5.65;;
62151;SDS011;48139;47.474;19.034;2023-02-22T05:30:45;8.68;;;4.65;;
62151;SDS011;48139;47.474;19.034;2023-02-22T05:33:47;8.87;;;4.80;;
62151;SDS011;48139;47.474;19.034;2023-02-22T05:36:50;10.93;;;5.13;;
62151;SDS011;48139;47.474;19.034;2023-02-22T05:39:53;9.75;;;6.05;;
62151;SDS011;48139;47.474;19.034;2023-02-22T05:42:57;8.55;;;5.70;;
62151;SDS011;48139;47.474;19.034;2023-02-22T05:46:01;11.12;;;6.22;;
62151;SDS011;48139;47.474;19.034;2023-02-22T05:49:04;8.00;;;5.07;;
62151;SDS011;48139;47.474;19.034;2023-02-22T05:52:06;10.00;;;5.97;;
62151;SDS011;48139;47.474;19.034;2023-02-22T05:55:10;10.30;;;5.83;;
62151;SDS011;48139;47.474;19.034;2023-02-22T05:58:15;11.40;;;6.25;;
62151;SDS011;48139;47.474;19.034;2023-02-22T06:01:18;10.75;;;6.10;;
62151;SDS011;48139;47.474;19.034;2023-02-22T06:04:22;10.57;;;5.53;;
62151;SDS011;48139;47.474;19.034;2023-02-22T06:07:25;11.27;;;5.17;;
62151;SDS011;48139;47.474;19.034;2023-02-22T06:13:33;11.77;;;5.55;;
62151;SDS011;48139;47.474;19.034;2023-02-22T06:19:40;10.52;;;5.72;;
62151;SDS011;48139;47.474;19.034;2023-02-22T06:22:45;10.00;;;4.62;;
62151;SDS011;48139;47.474;19.034;2023-02-22T06:25:48;9.75;;;4.90;;
62151;SDS011;48139;47.474;19.034;2023-02-22T06:28:51;10.07;;;5.70;;
62151;SDS011;48139;47.474;19.034;2023-02-22T06:31:53;11.02;;;6.10;;
62151;SDS011;48139;47.474;19.034;2023-02-22T06:37:59;9.07;;;4.28;;
62151;SDS011;48139;47.474;19.034;2023-02-22T06:41:04;8.98;;;4.95;;
62151;SDS011;48139;47.474;19.034;2023-02-22T06:44:07;9.40;;;4.85;;
62151;SDS011;48139;47.474;19.034;2023-02-22T06:50:17;10.52;;;5.45;;
62151;SDS011;48139;47.474;19.034;2023-02-22T06:53:20;11.43;;;4.93;;
62151;SDS011;48139;47.474;19.034;2023-02-22T06:56:23;11.23;;;5.03;;
62151;SDS011;48139;47.474;19.034;2023-02-22T06:59:26;9.15;;;5.45;;
62151;SDS011;48139;47.474;19.034;2023-02-22T07:02:29;10.80;;;5.12;;
62151;SDS011;48139;47.474;19.034;2023-02-22T07:05:32;13.40;;;5.62;;
62151;SDS011;48139;47.474;19.034;2023-02-22T07:08:35;9.35;;;4.95;;
62151;SDS011;48139;47.474;19.034;2023-02-22T07:11:38;10.73;;;5.15;;
62151;SDS011;48139;47.474;19.034;2023-02-22T07:14:41;14.57;;;6.18;;
62151;SDS011;48139;47.474;19.034;2023-02-22T07:17:44;8.25;;;5.65;;
62151;SDS011;48139;47.474;19.034;2023-02-22T07:20:46;8.63;;;5.07;;
62151;SDS011;48139;47.474;19.034;2023-02-22T07:23:50;13.05;;;5.37;;
62151;SDS011;48139;47.474;19.034;2023-02-22T07:26:57;10.30;;;5.32;;
62151;SDS011;48139;47.474;19.034;2023-02-22T07:30:03;8.68;;;4.85;;
62151;SDS011;48139;47.474;19.034;2023-02-22T07:33:08;9.70;;;5.43;;
62151;SDS011;48139;47.474;19.034;2023-02-22T07:36:12;8.35;;;5.15;;
62151;SDS011;48139;47.474;19.034;2023-02-22T07:39:19;11.20;;;5.68;;
62151;SDS011;48139;47.474;19.034;2023-02-22T07:42:22;8.43;;;5.00;;
62151;SDS011;48139;47.474;19.034;2023-02-22T07:45:25;7.78;;;4.40;;
62151;SDS011;48139;47.474;19.034;2023-02-22T07:48:30;9.70;;;5.15;;
62151;SDS011;48139;47.474;19.034;2023-02-22T07:51:33;8.90;;;5.72;;
62151;SDS011;48139;47.474;19.034;2023-02-22T07:57:39;11.18;;;6.30;;
62151;SDS011;48139;47.474;19.034;2023-02-22T08:00:42;8.50;;;5.53;;
62151;SDS011;48139;47.474;19.034;2023-02-22T08:03:45;8.13;;;4.60;;
62151;SDS011;48139;47.474;19.034;2023-02-22T08:06:48;9.50;;;5.53;;
62151;SDS011;48139;47.474;19.034;2023-02-22T08:09:51;9.30;;;5.57;;
62151;SDS011;48139;47.474;19.034;2023-02-22T08:12:54;10.93;;;5.47;;
62151;SDS011;48139;47.474;19.034;2023-02-22T08:15:57;11.93;;;6.47;;
62151;SDS011;48139;47.474;19.034;2023-02-22T08:19:00;14.47;;;4.57;;
62151;SDS011;48139;47.474;19.034;2023-02-22T08:22:03;8.88;;;5.20;;
62151;SDS011;48139;47.474;19.034;2023-02-22T08:25:05;8.30;;;5.55;;
62151;SDS011;48139;47.474;19.034;2023-02-22T08:31:16;9.82;;;5.75;;
62151;SDS011;48139;47.474;19.034;2023-02-22T08:34:19;10.50;;;5.45;;
62151;SDS011;48139;47.474;19.034;2023-02-22T08:37:22;11.88;;;6.72;;
62151;SDS011;48139;47.474;19.034;2023-02-22T08:40:25;12.10;;;5.78;;
62151;SDS011;48139;47.474;19.034;2023-02-22T08:43:29;11.52;;;6.55;;
62151;SDS011;48139;47.474;19.034;2023-02-22T08:46:32;10.20;;;5.82;;
62151;SDS011;48139;47.474;19.034;2023-02-22T08:49:34;9.07;;;5.30;;
62151;SDS011;48139;47.474;19.034;2023-02-22T08:52:37;11.68;;;7.22;;
62151;SDS011;48139;47.474;19.034;2023-02-22T08:55:40;9.63;;;6.45;;
62151;SDS011;48139;47.474;19.034;2023-02-22T08:58:43;7.93;;;4.60;;
62151;SDS011;48139;47.474;19.034;2023-02-22T09:01:46;6.93;;;4.22;;
62151;SDS011;48139;47.474;19.034;2023-02-22T09:04:49;7.22;;;3.90;;
62151;SDS011;48139;47.474;19.034;2023-02-22T09:07:51;11.90;;;6.25;;
62151;SDS011;48139;47.474;19.034;2023-02-22T09:13:57;16.35;;;8.88;;
62151;SDS011;48139;47.474;19.034;2023-02-22T09:17:00;14.63;;;8.05;;
62151;SDS011;48139;47.474;19.034;2023-02-22T09:20:07;19.48;;;10.23;;
62151;SDS011;48139;47.474;19.034;2023-02-22T09:23:10;12.93;;;8.02;;
62151;SDS011;48139;47.474;19.034;2023-02-22T09:26:12;18.20;;;10.00;;
62151;SDS011;48139;47.474;19.034;2023-02-22T09:29:17;19.23;;;9.93;;
62151;SDS011;48139;47.474;19.034;2023-02-22T09:32:24;17.98;;;10.98;;
62151;SDS011;48139;47.474;19.034;2023-02-22T09:35:29;17.42;;;9.93;;
62151;SDS011;48139;47.474;19.034;2023-02-22T09:38:32;20.15;;;9.60;;
62151;SDS011;48139;47.474;19.034;2023-02-22T09:42:01;15.05;;;9.00;;
62151;SDS011;48139;47.474;19.034;2023-02-22T09:45:14;17.05;;;10.95;;
62151;SDS011;48139;47.474;19.034;2023-02-22T09:48:24;18.33;;;10.88;;
62151;SDS011;48139;47.474;19.034;2023-02-22T09:51:32;30.10;;;14.25;;
62151;SDS011;48139;47.474;19.034;2023-02-22T09:54:47;30.35;;;18.33;;
62151;SDS011;48139;47.474;19.034;2023-02-22T09:57:54;27.50;;;13.95;;
62151;SDS011;48139;47.474;19.034;2023-02-22T10:01:03;20.45;;;12.07;;
62151;SDS011;48139;47.474;19.034;2023-02-22T10:07:55;20.65;;;13.07;;
62151;SDS011;48139;47.474;19.034;2023-02-22T10:18:12;18.83;;;10.88;;
62151;SDS011;48139;47.474;19.034;2023-02-22T10:28:22;18.48;;;10.15;;
62151;SDS011;48139;47.474;19.034;2023-02-22T10:31:30;18.40;;;10.73;;
62151;SDS011;48139;47.474;19.034;2023-02-22T10:34:37;15.57;;;9.85;;
62151;SDS011;48139;47.474;19.034;2023-02-22T10:37:43;14.80;;;10.77;;
62151;SDS011;48139;47.474;19.034;2023-02-22T10:40:49;14.77;;;10.55;;
62151;SDS011;48139;47.474;19.034;2023-02-22T10:43:58;21.73;;;10.30;;
62151;SDS011;48139;47.474;19.034;2023-02-22T10:47:02;16.42;;;10.23;;
62151;SDS011;48139;47.474;19.034;2023-02-22T10:50:11;19.30;;;9.70;;
62151;SDS011;48139;47.474;19.034;2023-02-22T10:53:16;16.27;;;9.63;;
62151;SDS011;48139;47.474;19.034;2023-02-22T10:56:20;12.25;;;10.05;;
62151;SDS011;48139;47.474;19.034;2023-02-22T10:59:36;15.27;;;9.88;;
62151;SDS011;48139;47.474;19.034;2023-02-22T11:02:48;17.80;;;10.20;;
62151;SDS011;48139;47.474;19.034;2023-02-22T11:05:57;18.90;;;10.27;;
62151;SDS011;48139;47.474;19.034;2023-02-22T11:09:22;17.52;;;9.95;;
62151;SDS011;48139;47.474;19.034;2023-02-22T11:15:28;14.85;;;8.95;;
62151;SDS011;48139;47.474;19.034;2023-02-22T11:18:32;14.45;;;10.07;;
62151;SDS011;48139;47.474;19.034;2023-02-22T11:21:36;15.30;;;8.70;;
62151;SDS011;48139;47.474;19.034;2023-02-22T11:24:47;17.12;;;9.30;;
62151;SDS011;48139;47.474;19.034;2023-02-22T11:27:54;15.82;;;9.60;;
62151;SDS011;48139;47.474;19.034;2023-02-22T11:34:29;16.58;;;10.68;;
62151;SDS011;48139;47.474;19.034;2023-02-22T11:37:43;17.10;;;10.48;;
62151;SDS011;48139;47.474;19.034;2023-02-22T11:40:47;17.87;;;10.13;;
62151;SDS011;48139;47.474;19.034;2023-02-22T11:44:26;20.73;;;10.32;;
62151;SDS011;48139;47.474;19.034;2023-02-22T11:47:30;21.10;;;12.00;;
62151;SDS011;48139;47.474;19.034;2023-02-22T11:57:03;15.68;;;9.65;;
62151;SDS011;48139;47.474;19.034;2023-02-22T12:04:08;23.75;;;11.45;;
62151;SDS011;48139;47.474;19.034;2023-02-22T12:21:14;15.57;;;9.27;;
62151;SDS011;48139;47.474;19.034;2023-02-22T12:24:24;18.77;;;10.05;;
62151;SDS011;48139;47.474;19.034;2023-02-22T12:30:44;20.12;;;9.40;;
62151;SDS011;48139;47.474;19.034;2023-02-22T12:33:59;17.85;;;10.60;;
62151;SDS011;48139;47.474;19.034;2023-02-22T12:37:16;19.37;;;10.18;;
62151;SDS011;48139;47.474;19.034;2023-02-22T12:40:26;15.90;;;9.95;;
62151;SDS011;48139;47.474;19.034;2023-02-22T12:46:48;17.60;;;11.60;;
62151;SDS011;48139;47.474;19.034;2023-02-22T12:49:57;19.90;;;11.50;;
62151;SDS011;48139;47.474;19.034;2023-02-22T12:53:11;16.75;;;11.93;;
62151;SDS011;48139;47.474;19.034;2023-02-22T12:56:42;18.37;;;9.93;;
62151;SDS011;48139;47.474;19.034;2023-02-22T12:59:53;30.37;;;11.45;;
62151;SDS011;48139;47.474;19.034;2023-02-22T13:03:00;15.93;;;9.98;;
62151;SDS011;48139;47.474;19.034;2023-02-22T13:06:10;14.98;;;9.45;;
62151;SDS011;48139;47.474;19.034;2023-02-22T13:19:20;17.87;;;9.75;;
62151;SDS011;48139;47.474;19.034;2023-02-22T13:29:29;17.67;;;9.00;;
62151;SDS011;48139;47.474;19.034;2023-02-22T13:32:45;14.35;;;9.77;;
62151;SDS011;48139;47.474;19.034;2023-02-22T13:36:13;15.32;;;9.77;;
62151;SDS011;48139;47.474;19.034;2023-02-22T13:39:39;17.27;;;9.90;;
62151;SDS011;48139;47.474;19.034;2023-02-22T13:53:34;13.52;;;9.80;;
62151;SDS011;48139;47.474;19.034;2023-02-22T13:56:58;16.67;;;9.77;;
62151;SDS011;48139;47.474;19.034;2023-02-22T14:06:35;17.10;;;9.35;;
62151;SDS011;48139;47.474;19.034;2023-02-22T14:09:44;15.88;;;9.95;;
62151;SDS011;48139;47.474;19.034;2023-02-22T14:13:04;16.70;;;10.13;;
62151;SDS011;48139;47.474;19.034;2023-02-22T14:19:15;22.20;;;12.07;;
62151;SDS011;48139;47.474;19.034;2023-02-22T14:22:26;14.87;;;9.95;;
62151;SDS011;48139;47.474;19.034;2023-02-22T14:25:38;18.00;;;11.32;;
62151;SDS011;48139;47.474;19.034;2023-02-22T14:31:59;18.40;;;10.00;;
62151;SDS011;48139;47.474;19.034;2023-02-22T14:35:05;15.07;;;9.85;;
62151;SDS011;48139;47.474;19.034;2023-02-22T14:38:29;16.60;;;10.68;;
62151;SDS011;48139;47.474;19.034;2023-02-22T14:41:32;20.77;;;11.63;;
62151;SDS011;48139;47.474;19.034;2023-02-22T14:51:34;14.50;;;9.65;;
62151;SDS011;48139;47.474;19.034;2023-02-22T14:54:49;19.52;;;10.95;;
62151;SDS011;48139;47.474;19.034;2023-02-22T14:58:01;18.83;;;12.13;;
62151;SDS011;48139;47.474;19.034;2023-02-22T15:04:49;16.77;;;9.98;;
62151;SDS011;48139;47.474;19.034;2023-02-22T15:10:59;20.45;;;10.35;;
62151;SDS011;48139;47.474;19.034;2023-02-22T15:14:14;17.75;;;10.82;;
62151;SDS011;48139;47.474;19.034;2023-02-22T15:17:27;21.42;;;11.60;;
62151;SDS011;48139;47.474;19.034;2023-02-22T15:20:31;18.60;;;11.60;;
62151;SDS011;48139;47.474;19.034;2023-02-22T15:23:50;19.20;;;11.65;;
62151;SDS011;48139;47.474;19.034;2023-02-22T15:26:55;16.37;;;10.98;;
62151;SDS011;48139;47.474;19.034;2023-02-22T15:30:19;19.48;;;11.75;;
62151;SDS011;48139;47.474;19.034;2023-02-22T15:33:27;17.62;;;11.18;;
62151;SDS011;48139;47.474;19.034;2023-02-22T15:36:32;17.42;;;10.60;;
62151;SDS011;48139;47.474;19.034;2023-02-22T15:39:36;20.50;;;12.13;;
62151;SDS011;48139;47.474;19.034;2023-02-22T15:42:51;17.08;;;10.15;;
62151;SDS011;48139;47.474;19.034;2023-02-22T15:45:55;17.40;;;9.25;;
62151;SDS011;48139;47.474;19.034;2023-02-22T15:49:03;14.45;;;9.63;;
62151;SDS011;48139;47.474;19.034;2023-02-22T15:52:21;18.05;;;10.80;;
62151;SDS011;48139;47.474;19.034;2023-02-22T15:55:39;16.87;;;9.35;;
62151;SDS011;48139;47.474;19.034;2023-02-22T15:58:45;16.95;;;8.93;;
62151;SDS011;48139;47.474;19.034;2023-02-22T16:01:49;15.98;;;10.57;;
62151;SDS011;48139;47.474;19.034;2023-02-22T16:04:56;14.48;;;9.18;;
62151;SDS011;48139;47.474;19.034;2023-02-22T16:08:01;17.17;;;10.13;;
62151;SDS011;48139;47.474;19.034;2023-02-22T16:11:06;18.20;;;9.85;;
62151;SDS011;48139;47.474;19.034;2023-02-22T16:20:36;16.37;;;9.98;;
62151;SDS011;48139;47.474;19.034;2023-02-22T16:30:21;16.25;;;9.73;;
62151;SDS011;48139;47.474;19.034;2023-02-22T16:33:30;17.52;;;10.48;;
62151;SDS011;48139;47.474;19.034;2023-02-22T16:36:39;16.48;;;9.70;;
62151;SDS011;48139;47.474;19.034;2023-02-22T16:39:44;15.68;;;10.13;;
62151;SDS011;48139;47.474;19.034;2023-02-22T16:42:47;18.27;;;11.15;;
62151;SDS011;48139;47.474;19.034;2023-02-22T16:45:52;15.90;;;9.98;;
62151;SDS011;48139;47.474;19.034;2023-02-22T16:48:55;15.95;;;9.35;;
